• Join FlightAware (Why Join?)
  • Login
  • US Flag 
03:51AM EDT


 

Airport Tracker/Info


-or-


 

Live Flight TrackerFlight Track Log ✈ DAL6078 ✈ 05-May-2013 ✈ KMHT - KLGA

Flight Track Log - Related Links

Times and Time Zones

All times are in EDT time to prevent confusion due to time zone crossing. See the DAL6078 flight status page for this flight to view local times or setup timezone preferences in your user account.

Time Position Orientation Groundspeed Altitude Reporting Facility
EDT Latitude Longitude Course Direction KTS MPH feet Rate Location/Type
09:07AM 42.9500 -71.4167 232° Southwest 158 182 1,200  Level KA90
09:08AM 43.0144 -71.3894 17° North 216 249 3,700 2,460 Climbing Boston Center
09:09AM 43.0547 -71.4597 308° West 200 230 6,700 2,460 Climbing Boston Center
09:10AM 42.6763 -71.8474 236° Southwest  Level FlightAware Approximate
09:10AM 43.0617 -71.5419 277° West 210 242 8,700  Level Boston Center
09:11AM 42.6161 -71.9511 231° Southwest  Level FlightAware Approximate
09:11AM 42.9997 -71.6169 222° Southwest 264 304 10,600  Level Boston Center
09:12AM 42.5548 -72.0537 232° Southwest  Level FlightAware Approximate
09:12AM 42.9439 -71.6942 225° Southwest 295 339 12,100  Level Boston Center
09:13AM 42.8717 -71.7856 223° Southwest 326 375 13,900 1,740 Climbing Boston Center
09:14AM 42.8094 -71.8683 224° Southwest 339 390 15,600 1,680 Climbing Boston Center
09:15AM 42.7328 -71.9708 224° Southwest 344 396 17,300 1,380 Climbing Boston Center
09:16AM 42.6706 -72.0561 225° Southwest 344 396 18,400 1,440 Climbing Boston Center
09:17AM 42.5917 -72.1581 224° Southwest 350 403 20,200 1,680 Climbing Boston Center
09:18AM 42.5192 -72.2542 224° Southwest 355 409 21,800 600 Climbing Boston Center
09:19AM 42.4503 -72.3331 220° Southwest 360 414 21,500 -900 Descending Boston Center
09:20AM 42.3733 -72.4400 226° Southwest 375 432 20,000 -1,740 Descending Boston Center
09:21AM 42.2836 -72.5581 224° Southwest 408 470 18,100 -1,500 Descending Boston Center
09:22AM 42.2147 -72.6475 224° Southwest 396 456 17,000 -1,080 Descending Boston Center
09:23AM 42.1519 -72.7481 230° Southwest 369 425 16,000 -540 Descending Boston Center
09:24AM 42.0933 -72.8736 238° Southwest 364 419 16,000  Level Boston Center
09:25AM 42.0489 -72.9714 239° Southwest 370 426 16,000  Level Boston Center
09:26AM 41.9858 -73.1161 240° Southwest 381 438 16,000  Level Boston Center
09:27AM 41.9369 -73.2328 241° Southwest 387 445 16,000  Level Boston Center
09:28AM 41.8736 -73.3656 237° Southwest 392 451 16,000 -600 Level Boston Center
09:29AM 41.7956 -73.4508 219° Southwest 398 458 14,900 -1,320 Descending Boston Center
09:30AM 41.7053 -73.5217 210° Southwest 370 426 13,400 -1,620 Descending Boston Center
09:31AM 41.6381 -73.5733 210° Southwest 330 380 11,700 -1,860 Descending Boston Center
09:32AM 41.5583 -73.6331 209° Southwest 312 359 9,700 -1,980 Descending Boston Center
09:32AM 41.5333 -73.6500 207° Southwest 292 336 9,000 -540 Descending New York TRACON
09:33AM 41.4667 -73.7167 217° Southwest 291 335 9,000  Level New York TRACON
09:34AM 41.3833 -73.7667 204° Southwest 284 327 9,000 -60 Level New York TRACON
09:35AM 41.3167 -73.7500 169° South 275 316 8,900 -540 Descending New York TRACON
09:36AM 41.2333 -73.7167 163° South 268 308 8,000 -1,080 Descending New York TRACON
09:37AM 41.1667 -73.7167 180° South 267 307 6,800 -1,320 Descending New York TRACON
09:38AM 41.1000 -73.7000 169° South 262 302 5,400 -1,440 Descending New York TRACON
09:39AM 41.0333 -73.7167 191° South 281 323 4,000 -720 Descending New York TRACON
09:40AM 40.9833 -73.7833 225° Southwest 270 311 4,000  Level New York TRACON
09:41AM 40.9500 -73.8833 246° West 259 298 4,000  Level New York TRACON
09:42AM 40.9000 -73.9333 217° Southwest 253 291 4,000  Level New York TRACON
09:43AM 40.8333 -73.9667 201° Southwest 253 291 4,000  Level New York TRACON
09:44AM 40.7833 -74.0000 207° Southwest 254 292 4,000  Level New York TRACON
09:45AM 40.7167 -74.0500 210° Southwest 257 296 4,000 -180 Level New York TRACON
09:46AM 40.6667 -74.0500 180° South 195 224 3,700 -900 Descending New York TRACON
09:47AM 40.6667 -74.0000 90° East 172 198 2,300 -900 Descending New York TRACON
09:48AM 40.6833 -73.9500 66° East 169 194 1,900 -600 Descending New York TRACON
09:49AM 40.7167 -73.9167 37° Northeast 141 162 1,100 -720 Descending New York TRACON
09:50AM 40.7500 -73.9000 21° North 139 160 500 -600 Descending New York TRACON